createdAt,value
2023-05-12T00:02:25.465Z,13.00
2023-05-12T00:04:54.805Z,12.90
2023-05-12T00:07:23.218Z,12.90
2023-05-12T00:09:53.442Z,12.90
2023-05-12T00:12:20.503Z,12.90
2023-05-12T00:14:50.565Z,12.90
2023-05-12T00:17:19.719Z,12.80
2023-05-12T00:19:48.827Z,12.80
2023-05-12T00:22:17.377Z,12.80
2023-05-12T00:24:44.451Z,12.80
2023-05-12T00:27:11.708Z,12.90
2023-05-12T00:29:41.736Z,12.90
2023-05-12T00:32:11.803Z,12.90
2023-05-12T00:34:40.769Z,12.90
2023-05-12T00:37:08.902Z,12.90
2023-05-12T00:39:36.344Z,12.80
2023-05-12T00:42:06.574Z,12.90
2023-05-12T00:44:34.634Z,12.90
2023-05-12T00:47:01.821Z,12.90
2023-05-12T00:49:32.524Z,12.90
2023-05-12T00:52:06.323Z,12.90
2023-05-12T00:54:36.302Z,12.90
2023-05-12T00:57:06.799Z,12.90
2023-05-12T00:59:39.784Z,12.90
2023-05-12T01:02:09.916Z,12.90
2023-05-12T01:04:40.174Z,12.90
2023-05-12T01:07:24.859Z,12.90
2023-05-12T01:09:56.634Z,12.90
2023-05-12T01:12:28.132Z,12.90
2023-05-12T01:15:04.789Z,13.00
2023-05-12T01:17:36.622Z,12.90
2023-05-12T01:20:07.463Z,12.90
2023-05-12T01:22:35.201Z,13.00
2023-05-12T01:25:07.800Z,13.00
2023-05-12T01:27:42.144Z,13.00
2023-05-12T01:30:16.683Z,13.00
2023-05-12T01:32:44.841Z,13.00
2023-05-12T01:35:14.960Z,13.00
2023-05-12T01:37:43.018Z,13.10
2023-05-12T01:40:11.307Z,13.10
2023-05-12T01:42:41.080Z,13.10
2023-05-12T01:45:09.264Z,13.00
2023-05-12T01:47:36.325Z,13.10
2023-05-12T01:50:07.185Z,13.10
2023-05-12T01:52:36.289Z,13.10
2023-05-12T01:55:07.274Z,13.20
2023-05-12T01:57:35.357Z,13.20
2023-05-12T02:00:04.018Z,13.30
2023-05-12T02:02:31.842Z,13.30
2023-05-12T02:05:02.020Z,13.30
2023-05-12T02:07:32.223Z,13.30
2023-05-12T02:09:59.206Z,13.30
2023-05-12T02:12:29.257Z,13.30
2023-05-12T02:14:57.310Z,13.30
2023-05-12T02:17:28.875Z,13.20
2023-05-12T02:19:55.974Z,13.20
2023-05-12T02:22:23.236Z,13.20
2023-05-12T02:24:52.203Z,13.20
2023-05-12T02:27:25.230Z,13.20
2023-05-12T02:29:55.427Z,13.20
2023-05-12T02:32:22.724Z,13.20
2023-05-12T02:34:52.758Z,13.20
2023-05-12T02:37:20.838Z,13.20
2023-05-12T02:39:50.236Z,13.20
2023-05-12T02:42:20.292Z,13.20
2023-05-12T02:44:47.375Z,13.10
2023-05-12T02:47:14.383Z,13.10
2023-05-12T02:49:44.552Z,13.10
2023-05-12T02:52:14.612Z,13.10
2023-05-12T02:54:47.692Z,13.00
2023-05-12T02:57:17.773Z,13.00
2023-05-12T02:59:47.862Z,13.00
2023-05-12T03:02:21.204Z,13.00
2023-05-12T03:04:48.279Z,13.00
2023-05-12T03:07:17.303Z,13.00
2023-05-12T03:09:46.335Z,13.00
2023-05-12T03:12:14.341Z,13.00
2023-05-12T03:14:42.422Z,13.00
2023-05-12T03:17:12.639Z,13.00
2023-05-12T03:19:42.972Z,13.00
2023-05-12T03:22:11.992Z,13.00
2023-05-12T03:24:42.051Z,13.00
2023-05-12T03:27:10.224Z,13.00
2023-05-12T03:29:37.155Z,13.00
2023-05-12T03:32:04.364Z,13.00
2023-05-12T03:34:31.696Z,13.00
2023-05-12T03:36:58.662Z,13.00
2023-05-12T03:39:26.796Z,13.00
2023-05-12T03:41:54.776Z,13.00
2023-05-12T03:44:21.812Z,13.00
2023-05-12T03:46:49.919Z,12.90
2023-05-12T03:49:19.966Z,12.90
2023-05-12T03:51:50.192Z,12.90
2023-05-12T03:54:20.211Z,12.90
2023-05-12T03:56:52.036Z,12.90
2023-05-12T03:59:21.915Z,12.90
2023-05-12T04:01:53.443Z,12.90
2023-05-12T04:04:23.627Z,12.90
2023-05-12T04:06:50.591Z,12.80
2023-05-12T04:09:17.619Z,12.90
2023-05-12T04:11:44.578Z,12.80
2023-05-12T04:14:14.654Z,12.80
2023-05-12T04:16:43.658Z,12.80
2023-05-12T04:19:13.864Z,12.80
2023-05-12T04:21:43.933Z,12.70
2023-05-12T04:24:13.972Z,12.70
2023-05-12T04:26:41.992Z,12.60
2023-05-12T04:29:09.020Z,12.60
2023-05-12T04:31:38.140Z,12.60
2023-05-12T04:34:06.378Z,12.50
2023-05-12T04:36:36.556Z,12.50
2023-05-12T04:39:05.602Z,12.50
2023-05-12T04:41:35.868Z,12.50
2023-05-12T04:44:02.867Z,12.50
2023-05-12T04:46:33.041Z,12.40
2023-05-12T04:49:02.090Z,12.40
2023-05-12T04:51:30.106Z,12.40
2023-05-12T04:53:58.120Z,12.30
2023-05-12T04:56:25.089Z,12.30
2023-05-12T04:58:52.228Z,12.30
2023-05-12T05:01:22.513Z,12.30
2023-05-12T05:03:51.994Z,12.30
2023-05-12T05:06:22.152Z,12.30
2023-05-12T05:08:53.242Z,12.30
2023-05-12T05:11:23.878Z,12.30
2023-05-12T05:13:52.855Z,12.30
2023-05-12T05:16:19.969Z,12.20
2023-05-12T05:18:47.246Z,12.20
2023-05-12T05:21:17.273Z,12.20
2023-05-12T05:23:44.389Z,12.20
2023-05-12T05:26:12.400Z,12.20
2023-05-12T05:28:46.817Z,12.10
2023-05-12T05:31:19.950Z,12.10
2023-05-12T05:33:48.204Z,12.10
2023-05-12T05:36:16.646Z,12.00
2023-05-12T05:38:44.621Z,12.10
2023-05-12T05:41:14.919Z,12.10
2023-05-12T05:43:41.822Z,12.00
2023-05-12T05:46:08.917Z,12.10
2023-05-12T05:48:38.484Z,12.00
2023-05-12T05:51:11.521Z,12.00
2023-05-12T05:53:39.618Z,12.00
2023-05-12T05:56:09.876Z,12.00
2023-05-12T05:58:37.757Z,12.00
2023-05-12T06:01:19.888Z,11.90
2023-05-12T06:03:49.033Z,11.90
2023-05-12T06:06:19.251Z,11.90
2023-05-12T06:08:47.249Z,11.90
2023-05-12T06:11:17.984Z,11.90
2023-05-12T06:13:48.431Z,11.80
2023-05-12T06:16:16.749Z,11.80
2023-05-12T06:18:44.804Z,11.90
2023-05-12T06:21:13.898Z,11.90
2023-05-12T06:23:42.199Z,11.80
2023-05-12T06:26:12.287Z,11.80
2023-05-12T06:28:39.350Z,11.80
2023-05-12T06:31:12.438Z,11.80
2023-05-12T06:33:40.427Z,11.80
2023-05-12T06:36:10.896Z,11.80
2023-05-12T06:38:40.984Z,11.80
2023-05-12T06:41:07.993Z,11.80
2023-05-12T06:43:35.071Z,11.80
2023-05-12T06:46:02.111Z,11.80
2023-05-12T06:48:29.134Z,11.80
2023-05-12T06:50:56.194Z,11.80
2023-05-12T06:53:25.478Z,11.80
2023-05-12T06:55:53.743Z,11.80
2023-05-12T06:58:22.145Z,11.70
2023-05-12T07:00:49.234Z,11.70
2023-05-12T07:03:17.400Z,11.70
2023-05-12T07:05:46.712Z,11.70
2023-05-12T07:08:13.794Z,11.70
2023-05-12T07:10:43.814Z,11.70
2023-05-12T07:13:13.038Z,11.60
2023-05-12T07:15:43.490Z,11.70
2023-05-12T07:18:13.993Z,11.60
2023-05-12T07:20:44.447Z,11.60
2023-05-12T07:23:11.541Z,11.60
2023-05-12T07:25:41.722Z,11.60
2023-05-12T07:28:11.587Z,11.60
2023-05-12T07:30:39.258Z,11.60
2023-05-12T07:33:08.713Z,11.50
2023-05-12T07:35:35.852Z,11.60
2023-05-12T07:38:04.277Z,11.60
2023-05-12T07:40:32.329Z,11.60
2023-05-12T07:43:00.812Z,11.60
2023-05-12T07:45:27.909Z,11.60
2023-05-12T07:47:55.965Z,11.60
2023-05-12T07:50:22.908Z,11.60
2023-05-12T07:52:50.882Z,11.70
2023-05-12T07:55:19.814Z,11.70
2023-05-12T07:57:52.550Z,11.70
2023-05-12T08:00:19.908Z,11.70
2023-05-12T08:02:47.526Z,11.70
2023-05-12T08:05:17.000Z,11.80
2023-05-12T08:07:47.283Z,11.80
2023-05-12T08:10:17.098Z,11.90
2023-05-12T08:12:45.107Z,11.90
2023-05-12T08:15:12.549Z,12.00
2023-05-12T08:17:39.617Z,12.00
2023-05-12T08:20:07.332Z,12.00
2023-05-12T08:22:37.362Z,12.00
2023-05-12T08:25:05.021Z,12.10
2023-05-12T08:27:32.204Z,12.10
2023-05-12T08:30:01.272Z,12.20
2023-05-12T08:32:30.376Z,12.20
2023-05-12T08:34:58.494Z,12.20
2023-05-12T08:37:30.951Z,12.30
2023-05-12T08:39:59.572Z,12.30
2023-05-12T08:42:43.896Z,12.30
2023-05-12T08:45:11.970Z,12.30
2023-05-12T08:47:42.938Z,12.40
2023-05-12T08:50:11.838Z,12.40
2023-05-12T08:52:40.963Z,12.50
2023-05-12T08:55:10.059Z,12.50
2023-05-12T08:57:39.673Z,12.60
2023-05-12T09:00:08.948Z,12.70
2023-05-12T09:02:53.072Z,12.70
2023-05-12T09:05:22.845Z,12.70
2023-05-12T09:07:52.060Z,12.80
2023-05-12T09:10:34.504Z,12.80
2023-05-12T09:13:34.220Z,12.90
2023-05-12T09:16:04.153Z,12.90
2023-05-12T09:18:53.399Z,13.00
2023-05-12T09:21:21.090Z,13.10
2023-05-12T09:24:01.344Z,13.10
2023-05-12T09:26:29.173Z,13.20
2023-05-12T09:29:09.949Z,13.20
2023-05-12T09:31:39.185Z,13.20
2023-05-12T09:34:10.424Z,13.30
2023-05-12T09:36:38.576Z,13.30
2023-05-12T09:39:08.284Z,13.30
2023-05-12T09:41:40.522Z,13.40
2023-05-12T09:44:14.491Z,13.40
2023-05-12T09:46:44.988Z,13.40
2023-05-12T09:49:12.908Z,13.50
2023-05-12T09:51:41.712Z,13.50
2023-05-12T09:54:09.918Z,13.50
2023-05-12T09:56:38.747Z,13.60
2023-05-12T09:59:06.382Z,13.60
2023-05-12T10:01:36.069Z,13.70
2023-05-12T10:04:07.673Z,13.80
2023-05-12T10:06:42.166Z,13.80
2023-05-12T10:09:19.162Z,13.80
2023-05-12T10:11:51.334Z,13.80
2023-05-12T10:14:23.657Z,13.80
2023-05-12T10:16:51.604Z,13.80
2023-05-12T10:19:22.712Z,13.90
2023-05-12T10:21:53.615Z,14.00
2023-05-12T10:24:25.541Z,14.30
2023-05-12T10:26:59.712Z,14.50
2023-05-12T10:29:33.067Z,14.70
2023-05-12T10:32:27.254Z,14.80
2023-05-12T10:35:08.863Z,14.90
2023-05-12T10:37:40.083Z,14.90
2023-05-12T10:40:24.733Z,15.00
2023-05-12T10:42:57.929Z,15.10
2023-05-12T10:45:28.556Z,15.10
2023-05-12T10:48:07.347Z,15.10
2023-05-12T10:50:37.526Z,15.00
2023-05-12T10:53:12.607Z,15.00
2023-05-12T10:55:50.465Z,15.10
2023-05-12T10:58:21.033Z,15.10
2023-05-12T11:00:52.896Z,15.30
2023-05-12T11:03:25.820Z,15.40
2023-05-12T11:06:01.240Z,15.50
2023-05-12T11:08:30.521Z,15.60
2023-05-12T11:10:59.107Z,15.50
2023-05-12T11:13:30.454Z,15.30
2023-05-12T11:15:58.364Z,15.10
2023-05-12T11:18:25.598Z,14.90
2023-05-12T11:20:52.640Z,14.70
2023-05-12T11:23:29.598Z,14.60
2023-05-12T11:25:57.336Z,14.50
2023-05-12T11:28:27.446Z,14.50
2023-05-12T11:30:55.824Z,14.50
2023-05-12T11:33:23.978Z,14.60
2023-05-12T11:35:51.543Z,14.80
2023-05-12T11:38:24.463Z,15.10
2023-05-12T11:40:54.628Z,15.30
2023-05-12T11:43:23.686Z,15.40
2023-05-12T11:45:55.508Z,15.30
2023-05-12T11:48:22.836Z,15.30
2023-05-12T11:50:53.187Z,15.20
2023-05-12T11:53:24.749Z,15.10
2023-05-12T11:55:56.846Z,15.10
2023-05-12T11:58:27.037Z,15.20
2023-05-12T12:00:57.187Z,15.10
2023-05-12T12:03:27.330Z,15.10
2023-05-12T12:06:03.404Z,15.00
2023-05-12T12:08:31.964Z,14.80
2023-05-12T12:11:04.282Z,14.80
2023-05-12T12:13:37.386Z,14.80
2023-05-12T12:16:11.786Z,14.90
2023-05-12T12:18:40.514Z,15.10
2023-05-12T12:21:08.555Z,15.20
2023-05-12T12:23:47.672Z,15.20
2023-05-12T12:26:23.810Z,15.00
2023-05-12T12:28:53.836Z,14.90
2023-05-12T12:31:21.913Z,14.90
2023-05-12T12:33:51.997Z,15.00
2023-05-12T12:36:18.990Z,15.30
2023-05-12T12:38:49.013Z,15.60
2023-05-12T12:41:19.332Z,15.60
2023-05-12T12:43:49.861Z,15.60
2023-05-12T12:46:19.362Z,15.40
2023-05-12T12:48:46.304Z,15.30
2023-05-12T12:51:15.430Z,15.10
2023-05-12T12:53:45.686Z,15.00
2023-05-12T12:56:15.512Z,14.90
2023-05-12T12:58:42.878Z,14.80
2023-05-12T13:01:09.923Z,14.80
2023-05-12T13:03:39.079Z,14.90
2023-05-12T13:06:06.878Z,15.00
2023-05-12T13:08:37.100Z,15.10
2023-05-12T13:11:04.108Z,15.30
2023-05-12T13:13:34.562Z,15.40
2023-05-12T13:16:02.363Z,15.50
2023-05-12T13:18:32.527Z,15.50
2023-05-12T13:21:04.521Z,15.50
2023-05-12T13:23:31.830Z,15.60
2023-05-12T13:26:01.980Z,15.50
2023-05-12T13:28:30.019Z,15.40
2023-05-12T13:30:57.182Z,15.30
2023-05-12T13:33:24.243Z,15.30
2023-05-12T13:35:51.232Z,15.20
2023-05-12T13:38:20.001Z,15.20
2023-05-12T13:40:49.245Z,15.20
2023-05-12T13:43:16.329Z,15.20
2023-05-12T13:45:43.299Z,15.20
2023-05-12T13:48:11.333Z,15.30
2023-05-12T13:50:41.386Z,15.30
2023-05-12T13:53:10.085Z,15.40
2023-05-12T13:55:40.843Z,15.50
2023-05-12T13:58:13.124Z,15.60
2023-05-12T14:00:43.309Z,15.70
2023-05-12T14:03:10.532Z,15.80
2023-05-12T14:05:38.632Z,15.80
2023-05-12T14:08:05.591Z,15.90
2023-05-12T14:10:33.094Z,15.90
2023-05-12T14:13:01.240Z,15.90
2023-05-12T14:15:40.653Z,15.80
2023-05-12T14:18:14.946Z,15.80
2023-05-12T14:20:45.456Z,15.80
2023-05-12T14:23:15.839Z,15.80
2023-05-12T14:25:46.022Z,15.90
2023-05-12T14:28:16.243Z,15.90
2023-05-12T14:30:45.350Z,16.00
2023-05-12T14:33:15.778Z,16.10
2023-05-12T14:35:59.401Z,16.20
2023-05-12T14:38:33.640Z,16.50
2023-05-12T14:41:04.179Z,16.80
2023-05-12T14:43:31.459Z,17.00
2023-05-12T14:46:02.236Z,17.10
2023-05-12T14:48:29.709Z,17.20
2023-05-12T14:50:58.902Z,17.20
2023-05-12T14:53:32.290Z,17.30
2023-05-12T14:56:01.818Z,17.40
2023-05-12T14:58:32.064Z,17.50
2023-05-12T15:01:02.914Z,17.70
2023-05-12T15:03:33.841Z,17.90
2023-05-12T15:06:07.036Z,17.90
2023-05-12T15:08:34.592Z,17.90
2023-05-12T15:11:01.672Z,17.90
2023-05-12T15:13:31.792Z,17.80
2023-05-12T15:16:03.110Z,17.60
2023-05-12T15:18:30.294Z,17.50
2023-05-12T15:20:57.366Z,17.40
2023-05-12T15:23:27.416Z,17.30
2023-05-12T15:25:54.420Z,17.20
2023-05-12T15:28:24.528Z,17.10
2023-05-12T15:30:56.969Z,17.00
2023-05-12T15:33:27.140Z,16.80
2023-05-12T15:35:55.239Z,16.70
2023-05-12T15:38:22.303Z,16.60
2023-05-12T15:40:52.501Z,16.60
2023-05-12T15:43:21.529Z,16.50
2023-05-12T15:45:48.526Z,16.60
2023-05-12T15:48:18.791Z,16.70
2023-05-12T15:50:48.917Z,16.80
2023-05-12T15:53:18.985Z,16.80
2023-05-12T15:55:50.521Z,16.90
2023-05-12T15:58:18.511Z,17.00
2023-05-12T16:00:47.771Z,16.90
2023-05-12T16:03:14.882Z,16.80
2023-05-12T16:05:42.986Z,16.70
2023-05-12T16:08:10.018Z,16.60
2023-05-12T16:10:40.323Z,16.50
2023-05-12T16:13:09.412Z,16.50
2023-05-12T16:15:37.346Z,16.50
2023-05-12T16:18:08.369Z,16.40
2023-05-12T16:20:37.373Z,16.40
2023-05-12T16:23:05.373Z,16.40
2023-05-12T16:25:35.743Z,16.30
2023-05-12T16:28:03.120Z,16.20
2023-05-12T16:30:36.167Z,16.10
2023-05-12T16:33:03.312Z,16.00
2023-05-12T16:35:36.443Z,15.90
2023-05-12T16:38:03.587Z,15.80
2023-05-12T16:40:33.785Z,15.70
2023-05-12T16:43:00.917Z,15.60
2023-05-12T16:45:30.047Z,15.50
2023-05-12T16:47:58.084Z,15.50
2023-05-12T16:50:27.138Z,15.40
2023-05-12T16:52:57.203Z,15.40
2023-05-12T16:55:27.342Z,15.30
2023-05-12T16:57:57.092Z,15.30
2023-05-12T17:00:23.986Z,15.30
2023-05-12T17:02:53.353Z,15.20
2023-05-12T17:05:21.993Z,15.20
2023-05-12T17:07:55.230Z,15.20
2023-05-12T17:10:25.418Z,15.20
2023-05-12T17:12:55.596Z,15.10
2023-05-12T17:15:26.797Z,15.10
2023-05-12T17:17:55.111Z,15.10
2023-05-12T17:20:22.985Z,15.10
2023-05-12T17:22:53.536Z,15.00
2023-05-12T17:25:23.312Z,15.00
2023-05-12T17:27:56.672Z,14.90
2023-05-12T17:30:24.750Z,15.00
2023-05-12T17:32:51.995Z,14.90
2023-05-12T17:35:19.629Z,15.00
2023-05-12T17:37:51.744Z,15.00
2023-05-12T17:40:19.241Z,15.00
2023-05-12T17:42:47.319Z,15.00
2023-05-12T17:45:17.603Z,15.00
2023-05-12T17:47:46.260Z,15.00
2023-05-12T17:50:16.289Z,14.90
2023-05-12T17:52:46.412Z,14.90
2023-05-12T17:55:16.788Z,14.80
2023-05-12T17:57:43.817Z,14.80
2023-05-12T18:00:11.457Z,14.80
2023-05-12T18:02:39.345Z,14.70
2023-05-12T18:05:09.973Z,14.70
2023-05-12T18:07:39.049Z,14.70
2023-05-12T18:10:11.786Z,14.70
2023-05-12T18:12:40.764Z,14.60
2023-05-12T18:15:11.140Z,14.60
2023-05-12T18:17:39.325Z,14.60
2023-05-12T18:20:08.777Z,14.50
2023-05-12T18:22:39.181Z,14.50
2023-05-12T18:25:14.151Z,14.50
2023-05-12T18:27:44.243Z,14.40
2023-05-12T18:30:11.967Z,14.40
2023-05-12T18:32:42.595Z,14.40
2023-05-12T18:35:13.151Z,14.40
2023-05-12T18:37:41.147Z,14.30
2023-05-12T18:40:14.498Z,14.30
2023-05-12T18:42:44.579Z,14.30
2023-05-12T18:45:18.699Z,14.20
2023-05-12T18:47:46.857Z,14.20
2023-05-12T18:50:17.641Z,14.10
2023-05-12T18:52:47.665Z,14.10
2023-05-12T18:55:17.925Z,14.10
2023-05-12T18:57:47.089Z,14.10
2023-05-12T19:00:15.346Z,14.10
2023-05-12T19:02:45.877Z,14.00
2023-05-12T19:05:16.093Z,14.00
2023-05-12T19:07:46.389Z,14.00
2023-05-12T19:10:33.357Z,14.00
2023-05-12T19:13:01.401Z,14.00
2023-05-12T19:15:29.515Z,13.90
2023-05-12T19:17:59.618Z,13.90
2023-05-12T19:20:28.207Z,13.90
2023-05-12T19:22:55.441Z,13.90
2023-05-12T19:25:25.792Z,13.90
2023-05-12T19:27:55.796Z,13.90
2023-05-12T19:30:22.759Z,13.90
2023-05-12T19:32:51.824Z,13.90
2023-05-12T19:35:19.397Z,14.00
2023-05-12T19:37:49.630Z,14.00
2023-05-12T19:40:19.726Z,14.10
2023-05-12T19:42:48.767Z,14.10
2023-05-12T19:45:19.218Z,14.20
2023-05-12T19:47:48.981Z,14.20
2023-05-12T19:50:18.698Z,14.30
2023-05-12T19:52:47.693Z,14.40
2023-05-12T19:55:16.698Z,14.40
2023-05-12T19:57:46.692Z,14.40
2023-05-12T20:00:14.149Z,14.40
2023-05-12T20:02:55.364Z,14.40
2023-05-12T20:05:22.720Z,14.40
2023-05-12T20:07:52.304Z,14.40
2023-05-12T20:10:22.366Z,14.40
2023-05-12T20:12:49.412Z,14.40
2023-05-12T20:15:17.806Z,14.50
2023-05-12T20:17:45.817Z,14.50
2023-05-12T20:20:14.172Z,14.50
2023-05-12T20:22:43.281Z,14.60
2023-05-12T20:25:12.547Z,14.60
2023-05-12T20:27:43.651Z,14.60
2023-05-12T20:30:14.885Z,14.60
2023-05-12T20:32:43.888Z,14.70
2023-05-12T20:35:11.105Z,14.70
2023-05-12T20:37:41.210Z,14.70
2023-05-12T20:40:11.673Z,14.80
2023-05-12T20:42:39.017Z,14.80
2023-05-12T20:45:09.369Z,14.80
2023-05-12T20:47:37.443Z,14.90
2023-05-12T20:50:07.084Z,15.00
2023-05-12T20:52:40.887Z,15.00
2023-05-12T20:55:09.862Z,15.10
2023-05-12T20:57:40.108Z,15.00
2023-05-12T21:00:10.878Z,15.00
2023-05-12T21:02:41.344Z,15.00
2023-05-12T21:05:08.631Z,15.00
2023-05-12T21:07:35.915Z,15.00
2023-05-12T21:10:03.918Z,15.00
2023-05-12T21:12:31.762Z,15.00
2023-05-12T21:14:58.806Z,15.00
2023-05-12T21:17:25.865Z,15.00
2023-05-12T21:19:53.899Z,15.00
2023-05-12T21:22:28.163Z,15.00
2023-05-12T21:24:55.140Z,15.00
2023-05-12T21:27:25.118Z,15.00
2023-05-12T21:29:56.282Z,15.00
2023-05-12T21:32:26.372Z,15.00
2023-05-12T21:34:57.279Z,14.90
2023-05-12T21:37:25.222Z,14.60
2023-05-12T21:39:55.364Z,14.40
2023-05-12T21:42:22.761Z,14.20
2023-05-12T21:44:56.101Z,14.00
2023-05-12T21:47:23.142Z,13.90
2023-05-12T21:49:55.040Z,13.80
2023-05-12T21:52:22.710Z,13.70
2023-05-12T21:54:49.738Z,13.60
2023-05-12T21:57:19.913Z,13.50
2023-05-12T21:59:50.024Z,13.50
2023-05-12T22:02:20.199Z,13.40
2023-05-12T22:04:50.342Z,13.30
2023-05-12T22:07:17.374Z,13.30
2023-05-12T22:09:45.318Z,13.30
2023-05-12T22:12:18.527Z,13.20
2023-05-12T22:14:46.486Z,13.20
2023-05-12T22:17:13.580Z,13.10
2023-05-12T22:19:40.771Z,13.10
2023-05-12T22:22:08.147Z,13.10
2023-05-12T22:24:35.049Z,13.10
2023-05-12T22:27:05.206Z,13.10
2023-05-12T22:29:34.200Z,13.10
2023-05-12T22:32:03.279Z,13.00
2023-05-12T22:34:33.392Z,13.00
2023-05-12T22:37:01.473Z,13.10
2023-05-12T22:39:29.470Z,13.10
2023-05-12T22:41:59.491Z,13.10
2023-05-12T22:44:26.507Z,13.10
2023-05-12T22:46:54.605Z,13.00
2023-05-12T22:49:24.702Z,13.00
2023-05-12T22:51:52.750Z,13.00
2023-05-12T22:54:20.804Z,13.00
2023-05-12T22:56:48.919Z,13.00
2023-05-12T22:59:19.063Z,12.90
2023-05-12T23:01:47.071Z,12.90
2023-05-12T23:04:17.339Z,12.90
2023-05-12T23:06:47.448Z,12.90
2023-05-12T23:09:20.749Z,12.90
2023-05-12T23:11:48.717Z,12.90
2023-05-12T23:14:16.732Z,12.90
2023-05-12T23:16:48.055Z,12.90
2023-05-12T23:19:15.912Z,12.90
2023-05-12T23:21:42.985Z,12.90
2023-05-12T23:24:11.089Z,12.90
2023-05-12T23:26:39.174Z,12.90
2023-05-12T23:29:07.475Z,12.90
2023-05-12T23:31:36.638Z,12.90
2023-05-12T23:34:06.694Z,12.90
2023-05-12T23:36:37.002Z,12.80
2023-05-12T23:39:04.284Z,12.80
2023-05-12T23:41:31.838Z,12.80
2023-05-12T23:44:02.453Z,12.80
2023-05-12T23:46:31.681Z,12.80
2023-05-12T23:49:01.738Z,12.80
2023-05-12T23:51:30.018Z,12.80
2023-05-12T23:53:59.043Z,12.70
2023-05-12T23:56:26.102Z,12.70
2023-05-12T23:58:56.534Z,12.80
